sensor_id;sensor_type;location;lat;lon;timestamp;pressure;altitude;pressure_sealevel;temperature;humidity
36798;BME280;22748;8.426;99.512;2023-08-08T00:02:21;100829.03;;;29.43;68.03
36798;BME280;22748;8.426;99.512;2023-08-08T00:04:52;100828.41;;;29.47;68.34
36798;BME280;22748;8.426;99.512;2023-08-08T00:07:25;100841.66;;;29.42;68.42
36798;BME280;22748;8.426;99.512;2023-08-08T00:09:58;100845.56;;;29.40;68.45
36798;BME280;22748;8.426;99.512;2023-08-08T00:12:28;100839.97;;;29.41;68.56
36798;BME280;22748;8.426;99.512;2023-08-08T00:14:59;100845.78;;;29.38;68.41
36798;BME280;22748;8.426;99.512;2023-08-08T00:17:28;100852.19;;;29.44;68.16
36798;BME280;22748;8.426;99.512;2023-08-08T00:19:59;100849.31;;;29.45;68.20
36798;BME280;22748;8.426;99.512;2023-08-08T00:22:32;100849.72;;;29.36;68.85
36798;BME280;22748;8.426;99.512;2023-08-08T00:25:03;100846.81;;;29.37;68.54
36798;BME280;22748;8.426;99.512;2023-08-08T00:27:34;100847.44;;;29.39;68.67
36798;BME280;22748;8.426;99.512;2023-08-08T00:30:10;100841.66;;;29.42;68.46
36798;BME280;22748;8.426;99.512;2023-08-08T00:32:41;100835.22;;;29.43;68.75
36798;BME280;22748;8.426;99.512;2023-08-08T00:35:13;100834.41;;;29.43;68.81
36798;BME280;22748;8.426;99.512;2023-08-08T00:37:45;100845.97;;;29.43;68.61
36798;BME280;22748;8.426;99.512;2023-08-08T00:40:17;100848.47;;;29.45;69.24
36798;BME280;22748;8.426;99.512;2023-08-08T00:42:48;100851.56;;;29.42;69.00
36798;BME280;22748;8.426;99.512;2023-08-08T00:45:25;100856.56;;;29.25;69.25
36798;BME280;22748;8.426;99.512;2023-08-08T00:47:56;100874.53;;;29.24;69.29
36798;BME280;22748;8.426;99.512;2023-08-08T00:50:26;100873.72;;;29.30;69.41
36798;BME280;22748;8.426;99.512;2023-08-08T00:52:58;100882.63;;;29.38;69.25
36798;BME280;22748;8.426;99.512;2023-08-08T00:55:30;100884.91;;;29.41;69.42
36798;BME280;22748;8.426;99.512;2023-08-08T00:58:01;100890.91;;;29.43;69.58
36798;BME280;22748;8.426;99.512;2023-08-08T01:00:31;100889.47;;;29.47;69.82
36798;BME280;22748;8.426;99.512;2023-08-08T01:03:03;100886.34;;;29.50;69.28
36798;BME280;22748;8.426;99.512;2023-08-08T01:05:38;100887.59;;;29.54;69.08
36798;BME280;22748;8.426;99.512;2023-08-08T01:08:18;100890.09;;;29.56;69.37
36798;BME280;22748;8.426;99.512;2023-08-08T01:10:51;100900.63;;;29.57;69.22
36798;BME280;22748;8.426;99.512;2023-08-08T01:13:24;100902.28;;;29.58;69.44
36798;BME280;22748;8.426;99.512;2023-08-08T01:16:02;100905.59;;;29.60;69.76
36798;BME280;22748;8.426;99.512;2023-08-08T01:18:33;100904.34;;;29.63;69.37
36798;BME280;22748;8.426;99.512;2023-08-08T01:21:05;100901.22;;;29.66;69.86
36798;BME280;22748;8.426;99.512;2023-08-08T01:23:46;100898.34;;;29.67;69.35
36798;BME280;22748;8.426;99.512;2023-08-08T01:26:19;100903.09;;;29.65;69.78
36798;BME280;22748;8.426;99.512;2023-08-08T01:28:53;100907.03;;;29.56;70.03
36798;BME280;22748;8.426;99.512;2023-08-08T01:31:33;100904.78;;;29.66;69.38
36798;BME280;22748;8.426;99.512;2023-08-08T01:34:03;100912.66;;;29.74;69.70
36798;BME280;22748;8.426;99.512;2023-08-08T01:36:41;100914.94;;;29.78;69.81
36798;BME280;22748;8.426;99.512;2023-08-08T01:39:17;100902.31;;;29.78;69.52
36798;BME280;22748;8.426;99.512;2023-08-08T01:41:50;100907.06;;;29.83;69.67
36798;BME280;22748;8.426;99.512;2023-08-08T01:44:23;100916.38;;;29.87;69.54
36798;BME280;22748;8.426;99.512;2023-08-08T01:46:56;100921.75;;;29.87;69.42
36798;BME280;22748;8.426;99.512;2023-08-08T01:49:28;100926.31;;;29.93;69.17
36798;BME280;22748;8.426;99.512;2023-08-08T01:52:01;100927.56;;;29.90;69.46
36798;BME280;22748;8.426;99.512;2023-08-08T01:54:33;100923.44;;;29.94;69.54
36798;BME280;22748;8.426;99.512;2023-08-08T01:57:05;100929.00;;;30.00;68.97
36798;BME280;22748;8.426;99.512;2023-08-08T01:59:41;100931.91;;;29.98;68.55
36798;BME280;22748;8.426;99.512;2023-08-08T02:02:11;100930.03;;;29.92;68.63
36798;BME280;22748;8.426;99.512;2023-08-08T02:04:41;100925.28;;;29.87;68.35
36798;BME280;22748;8.426;99.512;2023-08-08T02:07:12;100932.31;;;29.95;68.68
36798;BME280;22748;8.426;99.512;2023-08-08T02:09:43;100942.66;;;29.98;68.90
36798;BME280;22748;8.426;99.512;2023-08-08T02:12:16;100940.59;;;30.00;68.27
36798;BME280;22748;8.426;99.512;2023-08-08T02:14:52;100937.91;;;29.87;68.38
36798;BME280;22748;8.426;99.512;2023-08-08T02:17:23;100944.13;;;29.74;68.59
36798;BME280;22748;8.426;99.512;2023-08-08T02:19:55;100943.72;;;29.64;68.59
36798;BME280;22748;8.426;99.512;2023-08-08T02:22:27;100942.03;;;29.49;69.16
36798;BME280;22748;8.426;99.512;2023-08-08T02:24:57;100940.19;;;29.70;68.71
36798;BME280;22748;8.426;99.512;2023-08-08T02:27:35;100935.44;;;29.85;68.26
36798;BME280;22748;8.426;99.512;2023-08-08T02:30:09;100940.81;;;29.92;68.09
36798;BME280;22748;8.426;99.512;2023-08-08T02:32:41;100943.09;;;30.02;67.51
36798;BME280;22748;8.426;99.512;2023-08-08T02:35:12;100949.50;;;30.07;67.80
36798;BME280;22748;8.426;99.512;2023-08-08T02:37:43;100942.88;;;30.10;67.34
36798;BME280;22748;8.426;99.512;2023-08-08T02:40:13;100944.94;;;30.14;67.05
36798;BME280;22748;8.426;99.512;2023-08-08T02:42:46;100931.03;;;30.18;66.59
36798;BME280;22748;8.426;99.512;2023-08-08T02:45:17;100933.56;;;29.99;66.82
36798;BME280;22748;8.426;99.512;2023-08-08T02:47:47;100926.91;;;30.08;66.87
36798;BME280;22748;8.426;99.512;2023-08-08T02:50:18;100924.63;;;30.12;66.65
36798;BME280;22748;8.426;99.512;2023-08-08T02:52:49;100925.25;;;30.21;66.59
36798;BME280;22748;8.426;99.512;2023-08-08T02:55:20;100924.59;;;30.25;66.83
36798;BME280;22748;8.426;99.512;2023-08-08T02:57:53;100935.78;;;30.29;66.44
36798;BME280;22748;8.426;99.512;2023-08-08T03:00:23;100924.41;;;30.33;66.66
36798;BME280;22748;8.426;99.512;2023-08-08T03:02:54;100925.41;;;30.39;66.47
36798;BME280;22748;8.426;99.512;2023-08-08T03:05:25;100928.72;;;30.41;66.12
36798;BME280;22748;8.426;99.512;2023-08-08T03:07:56;100929.97;;;30.45;66.63
36798;BME280;22748;8.426;99.512;2023-08-08T03:10:25;100927.44;;;30.50;66.71
36798;BME280;22748;8.426;99.512;2023-08-08T03:12:58;100925.81;;;30.49;66.87
36798;BME280;22748;8.426;99.512;2023-08-08T03:15:28;100912.94;;;30.51;66.70
36798;BME280;22748;8.426;99.512;2023-08-08T03:18:01;100916.25;;;30.53;66.67
36798;BME280;22748;8.426;99.512;2023-08-08T03:20:31;100924.53;;;30.59;66.21
36798;BME280;22748;8.426;99.512;2023-08-08T03:23:16;100921.41;;;30.55;65.94
36798;BME280;22748;8.426;99.512;2023-08-08T03:25:53;100917.94;;;30.48;65.69
36798;BME280;22748;8.426;99.512;2023-08-08T03:28:26;100915.63;;;30.51;65.19
36798;BME280;22748;8.426;99.512;2023-08-08T03:30:57;100910.41;;;30.63;64.92
36798;BME280;22748;8.426;99.512;2023-08-08T03:33:28;100913.66;;;30.72;64.74
36798;BME280;22748;8.426;99.512;2023-08-08T03:35:58;100918.22;;;30.78;64.48
36798;BME280;22748;8.426;99.512;2023-08-08T03:38:29;100924.00;;;30.82;64.25
36798;BME280;22748;8.426;99.512;2023-08-08T03:40:59;100929.41;;;30.88;64.13
36798;BME280;22748;8.426;99.512;2023-08-08T03:43:32;100923.56;;;30.91;63.88
36798;BME280;22748;8.426;99.512;2023-08-08T03:46:02;100918.16;;;30.91;64.11
36798;BME280;22748;8.426;99.512;2023-08-08T03:48:33;100917.19;;;30.86;64.57
36798;BME280;22748;8.426;99.512;2023-08-08T03:51:04;100915.63;;;30.96;64.41
36798;BME280;22748;8.426;99.512;2023-08-08T03:53:36;100920.63;;;31.00;63.96
36798;BME280;22748;8.426;99.512;2023-08-08T03:56:06;100918.09;;;31.05;63.55
36798;BME280;22748;8.426;99.512;2023-08-08T03:58:39;100914.38;;;31.06;63.78
36798;BME280;22748;8.426;99.512;2023-08-08T04:01:10;100920.38;;;31.08;63.48
36798;BME280;22748;8.426;99.512;2023-08-08T04:03:42;100925.31;;;31.11;63.50
36798;BME280;22748;8.426;99.512;2023-08-08T04:06:12;100917.63;;;31.14;62.92
36798;BME280;22748;8.426;99.512;2023-08-08T04:08:46;100910.97;;;31.17;62.74
36798;BME280;22748;8.426;99.512;2023-08-08T04:11:16;100907.63;;;31.22;62.77
36798;BME280;22748;8.426;99.512;2023-08-08T04:13:49;100904.69;;;31.23;63.27
36798;BME280;22748;8.426;99.512;2023-08-08T04:16:19;100907.41;;;31.23;63.13
36798;BME280;22748;8.426;99.512;2023-08-08T04:18:50;100906.13;;;31.26;62.94
36798;BME280;22748;8.426;99.512;2023-08-08T04:21:21;100903.22;;;31.27;62.80
36798;BME280;22748;8.426;99.512;2023-08-08T04:23:53;100898.44;;;31.29;62.58
36798;BME280;22748;8.426;99.512;2023-08-08T04:26:24;100900.06;;;31.30;62.34
36798;BME280;22748;8.426;99.512;2023-08-08T04:28:57;100886.97;;;31.34;62.61
36798;BME280;22748;8.426;99.512;2023-08-08T04:31:28;100877.22;;;31.33;62.47
36798;BME280;22748;8.426;99.512;2023-08-08T04:34:00;100884.28;;;31.34;62.58
36798;BME280;22748;8.426;99.512;2023-08-08T04:36:30;100875.34;;;31.33;62.70
36798;BME280;22748;8.426;99.512;2023-08-08T04:39:08;100867.84;;;31.35;62.52
36798;BME280;22748;8.426;99.512;2023-08-08T04:41:38;100863.91;;;31.38;62.34
36798;BME280;22748;8.426;99.512;2023-08-08T04:44:11;100863.06;;;31.37;62.18
36798;BME280;22748;8.426;99.512;2023-08-08T04:46:42;100855.56;;;31.40;62.39
36798;BME280;22748;8.426;99.512;2023-08-08T04:49:13;100842.91;;;31.40;62.24
36798;BME280;22748;8.426;99.512;2023-08-08T04:51:44;100840.19;;;31.40;62.59
36798;BME280;22748;8.426;99.512;2023-08-08T04:54:15;100840.44;;;31.39;62.76
36798;BME280;22748;8.426;99.512;2023-08-08T04:56:45;100829.41;;;31.40;63.00
36798;BME280;22748;8.426;99.512;2023-08-08T04:59:19;100829.19;;;31.42;62.68
36798;BME280;22748;8.426;99.512;2023-08-08T05:01:51;100829.81;;;31.44;62.79
36798;BME280;22748;8.426;99.512;2023-08-08T05:04:21;100816.34;;;31.44;62.58
36798;BME280;22748;8.426;99.512;2023-08-08T05:06:52;100811.53;;;31.46;62.88
36798;BME280;22748;8.426;99.512;2023-08-08T05:09:23;100818.16;;;31.50;62.55
36798;BME280;22748;8.426;99.512;2023-08-08T05:11:53;100807.75;;;31.53;62.68
36798;BME280;22748;8.426;99.512;2023-08-08T05:14:26;100807.28;;;31.56;62.61
36798;BME280;22748;8.426;99.512;2023-08-08T05:16:58;100798.16;;;31.58;62.99
36798;BME280;22748;8.426;99.512;2023-08-08T05:19:28;100799.56;;;31.60;62.86
36798;BME280;22748;8.426;99.512;2023-08-08T05:21:59;100805.34;;;31.64;63.03
36798;BME280;22748;8.426;99.512;2023-08-08T05:24:44;100803.47;;;31.64;62.25
36798;BME280;22748;8.426;99.512;2023-08-08T05:27:16;100806.78;;;31.66;62.18
36798;BME280;22748;8.426;99.512;2023-08-08T05:29:50;100805.13;;;31.65;62.34
36798;BME280;22748;8.426;99.512;2023-08-08T05:32:21;100824.63;;;31.67;62.14
36798;BME280;22748;8.426;99.512;2023-08-08T05:34:52;100880.25;;;31.68;62.11
36798;BME280;22748;8.426;99.512;2023-08-08T05:37:23;100910.25;;;31.60;62.83
36798;BME280;22748;8.426;99.512;2023-08-08T05:39:55;100936.97;;;31.43;62.80
36798;BME280;22748;8.426;99.512;2023-08-08T05:42:26;100942.03;;;31.26;63.72
36798;BME280;22748;8.426;99.512;2023-08-08T05:45:04;100947.06;;;31.16;63.64
36798;BME280;22748;8.426;99.512;2023-08-08T05:47:35;100959.97;;;31.07;64.01
36798;BME280;22748;8.426;99.512;2023-08-08T05:50:07;100963.41;;;30.89;63.23
36798;BME280;22748;8.426;99.512;2023-08-08T05:52:38;100974.25;;;30.69;63.17
36798;BME280;22748;8.426;99.512;2023-08-08T05:55:08;100960.63;;;30.58;63.08
36798;BME280;22748;8.426;99.512;2023-08-08T05:57:40;100946.94;;;30.52;63.34
36798;BME280;22748;8.426;99.512;2023-08-08T06:00:14;100920.81;;;30.46;62.92
36798;BME280;22748;8.426;99.512;2023-08-08T06:02:45;100911.09;;;30.45;63.09
36798;BME280;22748;8.426;99.512;2023-08-08T06:05:17;100906.34;;;30.41;63.57
36798;BME280;22748;8.426;99.512;2023-08-08T06:07:48;100910.69;;;30.42;63.80
36798;BME280;22748;8.426;99.512;2023-08-08T06:10:19;100913.78;;;30.45;63.28
36798;BME280;22748;8.426;99.512;2023-08-08T06:12:50;100903.63;;;30.47;63.44
36798;BME280;22748;8.426;99.512;2023-08-08T06:15:23;100919.63;;;30.42;63.07
36798;BME280;22748;8.426;99.512;2023-08-08T06:17:54;100923.16;;;30.36;63.71
36798;BME280;22748;8.426;99.512;2023-08-08T06:20:26;100927.94;;;30.34;64.06
36798;BME280;22748;8.426;99.512;2023-08-08T06:22:57;100927.94;;;30.34;64.03
36798;BME280;22748;8.426;99.512;2023-08-08T06:25:27;100916.53;;;30.19;63.82
36798;BME280;22748;8.426;99.512;2023-08-08T06:27:57;100920.69;;;30.14;64.25
36798;BME280;22748;8.426;99.512;2023-08-08T06:30:28;100919.25;;;30.05;64.35
36798;BME280;22748;8.426;99.512;2023-08-08T06:32:58;100899.78;;;30.10;64.08
36798;BME280;22748;8.426;99.512;2023-08-08T06:35:28;100907.63;;;30.11;63.70
36798;BME280;22748;8.426;99.512;2023-08-08T06:37:58;100915.09;;;30.09;63.58
36798;BME280;22748;8.426;99.512;2023-08-08T06:40:29;100920.69;;;30.14;64.10
36798;BME280;22748;8.426;99.512;2023-08-08T06:43:01;100916.53;;;30.19;63.73
36798;BME280;22748;8.426;99.512;2023-08-08T06:45:32;100909.50;;;30.04;64.04
36798;BME280;22748;8.426;99.512;2023-08-08T06:48:06;100903.09;;;30.05;64.52
36798;BME280;22748;8.426;99.512;2023-08-08T06:50:38;100892.94;;;29.94;64.63
36798;BME280;22748;8.426;99.512;2023-08-08T06:53:09;100876.19;;;29.92;65.22
36798;BME280;22748;8.426;99.512;2023-08-08T06:55:39;100872.47;;;29.93;65.15
36798;BME280;22748;8.426;99.512;2023-08-08T06:58:10;100859.63;;;29.88;65.01
36798;BME280;22748;8.426;99.512;2023-08-08T07:00:42;100854.25;;;29.88;65.05
36798;BME280;22748;8.426;99.512;2023-08-08T07:03:13;100850.94;;;29.93;64.90
36798;BME280;22748;8.426;99.512;2023-08-08T07:05:44;100852.56;;;29.94;64.71
36798;BME280;22748;8.426;99.512;2023-08-08T07:21:07;100821.97;;;29.82;65.97
36798;BME280;22748;8.426;99.512;2023-08-08T07:23:40;100819.44;;;29.87;65.90
36798;BME280;22748;8.426;99.512;2023-08-08T07:26:10;100821.50;;;29.91;65.96
36798;BME280;22748;8.426;99.512;2023-08-08T07:28:41;100816.16;;;29.78;66.18
36798;BME280;22748;8.426;99.512;2023-08-08T07:31:11;100808.72;;;29.73;66.04
36798;BME280;22748;8.426;99.512;2023-08-08T07:33:43;100807.09;;;29.72;65.74
36798;BME280;22748;8.426;99.512;2023-08-08T07:36:14;100802.09;;;29.63;66.46
36798;BME280;22748;8.426;99.512;2023-08-08T07:38:46;100796.09;;;29.61;65.95
36798;BME280;22748;8.426;99.512;2023-08-08T07:41:17;100786.78;;;29.57;66.27
36798;BME280;22748;8.426;99.512;2023-08-08T07:43:48;100778.50;;;29.58;66.38
36798;BME280;22748;8.426;99.512;2023-08-08T07:46:20;100780.56;;;29.56;66.56
36798;BME280;22748;8.426;99.512;2023-08-08T07:48:51;100779.75;;;29.49;66.82
36798;BME280;22748;8.426;99.512;2023-08-08T07:51:23;100776.03;;;29.50;66.76
36798;BME280;22748;8.426;99.512;2023-08-08T07:53:54;100779.78;;;29.22;67.72
36798;BME280;22748;8.426;99.512;2023-08-08T07:56:24;100791.16;;;29.18;68.27
36798;BME280;22748;8.426;99.512;2023-08-08T07:58:55;100782.03;;;28.92;69.00
36798;BME280;22748;8.426;99.512;2023-08-08T08:01:26;100775.81;;;28.85;68.70
36798;BME280;22748;8.426;99.512;2023-08-08T08:03:57;100768.78;;;28.84;69.23
36798;BME280;22748;8.426;99.512;2023-08-08T08:06:29;100763.59;;;29.02;68.39
36798;BME280;22748;8.426;99.512;2023-08-08T08:09:00;100744.81;;;29.16;67.75
36798;BME280;22748;8.426;99.512;2023-08-08T08:11:30;100730.94;;;29.25;68.02
36798;BME280;22748;8.426;99.512;2023-08-08T08:14:04;100716.44;;;29.40;67.91
36798;BME280;22748;8.426;99.512;2023-08-08T08:16:33;100709.38;;;29.45;67.25
36798;BME280;22748;8.426;99.512;2023-08-08T08:19:09;100711.25;;;29.51;66.88
36798;BME280;22748;8.426;99.512;2023-08-08T08:21:41;100716.84;;;29.43;66.99
36798;BME280;22748;8.426;99.512;2023-08-08T08:24:16;100723.88;;;29.31;67.48
36798;BME280;22748;8.426;99.512;2023-08-08T08:26:47;100711.28;;;29.38;67.33
36798;BME280;22748;8.426;99.512;2023-08-08T08:29:18;100712.25;;;29.50;66.91
36798;BME280;22748;8.426;99.512;2023-08-08T08:31:50;100698.59;;;29.59;66.87
36798;BME280;22748;8.426;99.512;2023-08-08T08:34:21;100695.69;;;29.60;67.42
36798;BME280;22748;8.426;99.512;2023-08-08T08:36:54;100689.88;;;29.63;67.43
36798;BME280;22748;8.426;99.512;2023-08-08T08:39:26;100685.34;;;29.64;67.23
36798;BME280;22748;8.426;99.512;2023-08-08T08:42:00;100686.38;;;29.69;67.66
36798;BME280;22748;8.426;99.512;2023-08-08T08:44:33;100686.97;;;29.71;67.41
36798;BME280;22748;8.426;99.512;2023-08-08T08:47:09;100688.66;;;29.72;66.84
36798;BME280;22748;8.426;99.512;2023-08-08T08:49:43;100687.38;;;29.75;67.44
36798;BME280;22748;8.426;99.512;2023-08-08T08:52:18;100684.06;;;29.80;67.61
36798;BME280;22748;8.426;99.512;2023-08-08T08:54:51;100675.34;;;29.78;67.37
36798;BME280;22748;8.426;99.512;2023-08-08T08:57:23;100674.31;;;29.79;67.59
36798;BME280;22748;8.426;99.512;2023-08-08T08:59:56;100669.13;;;29.84;67.29
36798;BME280;22748;8.426;99.512;2023-08-08T09:02:26;100661.69;;;29.79;67.44
36798;BME280;22748;8.426;99.512;2023-08-08T09:04:58;100671.19;;;29.82;67.56
36798;BME280;22748;8.426;99.512;2023-08-08T09:07:32;100668.88;;;29.85;67.20
36798;BME280;22748;8.426;99.512;2023-08-08T09:10:03;100664.34;;;29.86;67.00
36798;BME280;22748;8.426;99.512;2023-08-08T09:12:35;100660.84;;;29.79;67.31
36798;BME280;22748;8.426;99.512;2023-08-08T09:15:09;100654.59;;;29.85;67.42
36798;BME280;22748;8.426;99.512;2023-08-08T09:17:42;100649.84;;;29.87;67.77
36798;BME280;22748;8.426;99.512;2023-08-08T09:20:13;100662.28;;;29.88;67.46
36798;BME280;22748;8.426;99.512;2023-08-08T09:22:47;100653.59;;;29.86;67.43
36798;BME280;22748;8.426;99.512;2023-08-08T09:25:20;100656.69;;;29.83;67.31
36798;BME280;22748;8.426;99.512;2023-08-08T09:27:52;100645.50;;;29.86;67.31
36798;BME280;22748;8.426;99.512;2023-08-08T09:30:25;100652.13;;;29.83;67.53
36798;BME280;22748;8.426;99.512;2023-08-08T09:33:00;100650.44;;;29.89;67.28
36798;BME280;22748;8.426;99.512;2023-08-08T09:35:38;100643.63;;;29.86;67.54
36798;BME280;22748;8.426;99.512;2023-08-08T09:38:11;100653.75;;;29.91;67.05
36798;BME280;22748;8.426;99.512;2023-08-08T09:40:43;100647.09;;;29.93;66.95
36798;BME280;22748;8.426;99.512;2023-08-08T09:43:19;100649.59;;;29.95;67.02
36798;BME280;22748;8.426;99.512;2023-08-08T09:45:51;100650.63;;;29.94;67.13
36798;BME280;22748;8.426;99.512;2023-08-08T09:48:21;100644.22;;;29.95;66.91
36798;BME280;22748;8.426;99.512;2023-08-08T09:50:53;100645.44;;;29.99;66.77
36798;BME280;22748;8.426;99.512;2023-08-08T09:53:25;100643.75;;;29.98;67.29
36798;BME280;22748;8.426;99.512;2023-08-08T09:55:57;100637.97;;;30.01;67.08
36798;BME280;22748;8.426;99.512;2023-08-08T09:58:27;100638.63;;;29.97;67.24
36798;BME280;22748;8.426;99.512;2023-08-08T10:00:58;100641.50;;;29.95;66.39
36798;BME280;22748;8.426;99.512;2023-08-08T10:03:29;100647.31;;;29.92;66.41
36798;BME280;22748;8.426;99.512;2023-08-08T10:06:01;100646.31;;;29.86;66.79
36798;BME280;22748;8.426;99.512;2023-08-08T10:08:36;100642.81;;;29.86;66.37
36798;BME280;22748;8.426;99.512;2023-08-08T10:11:10;100645.50;;;29.86;66.49
36798;BME280;22748;8.426;99.512;2023-08-08T10:13:48;100639.50;;;29.84;66.80
36798;BME280;22748;8.426;99.512;2023-08-08T10:16:19;100643.44;;;29.88;66.63
36798;BME280;22748;8.426;99.512;2023-08-08T10:18:56;100641.75;;;29.87;66.49
36798;BME280;22748;8.426;99.512;2023-08-08T10:21:34;100646.38;;;29.80;66.28
36798;BME280;22748;8.426;99.512;2023-08-08T10:24:07;100656.69;;;29.83;66.20
36798;BME280;22748;8.426;99.512;2023-08-08T10:26:52;100655.22;;;29.87;66.74
36798;BME280;22748;8.426;99.512;2023-08-08T10:29:26;100667.88;;;29.86;66.64
36798;BME280;22748;8.426;99.512;2023-08-08T10:32:04;100670.34;;;29.88;66.75
36798;BME280;22748;8.426;99.512;2023-08-08T10:34:39;100669.75;;;29.86;66.72
36798;BME280;22748;8.426;99.512;2023-08-08T10:37:10;100678.00;;;29.91;66.80
36798;BME280;22748;8.426;99.512;2023-08-08T10:39:52;100668.66;;;29.93;66.79
36798;BME280;22748;8.426;99.512;2023-08-08T10:42:25;100666.16;;;29.99;66.47
36798;BME280;22748;8.426;99.512;2023-08-08T10:44:56;100670.28;;;30.01;66.68
36798;BME280;22748;8.426;99.512;2023-08-08T10:47:30;100678.13;;;30.03;66.32
36798;BME280;22748;8.426;99.512;2023-08-08T10:50:05;100678.13;;;30.03;66.36
36798;BME280;22748;8.426;99.512;2023-08-08T10:52:50;100678.13;;;30.03;66.22
36798;BME280;22748;8.426;99.512;2023-08-08T10:55:26;100684.34;;;30.03;66.29
36798;BME280;22748;8.426;99.512;2023-08-08T10:58:03;100684.13;;;30.05;66.64
36798;BME280;22748;8.426;99.512;2023-08-08T11:00:36;100682.28;;;30.05;66.50
36798;BME280;22748;8.426;99.512;2023-08-08T11:03:08;100683.91;;;30.06;66.84
36798;BME280;22748;8.426;99.512;2023-08-08T11:05:39;100685.56;;;30.07;66.83
36798;BME280;22748;8.426;99.512;2023-08-08T11:08:12;100679.13;;;30.08;66.40
36798;BME280;22748;8.426;99.512;2023-08-08T11:10:45;100683.09;;;30.06;66.47
36798;BME280;22748;8.426;99.512;2023-08-08T11:13:16;100684.97;;;30.05;66.78
36798;BME280;22748;8.426;99.512;2023-08-08T11:15:47;100694.69;;;30.06;66.63
36798;BME280;22748;8.426;99.512;2023-08-08T11:18:19;100694.69;;;30.06;66.94
36798;BME280;22748;8.426;99.512;2023-08-08T11:20:50;100699.03;;;30.07;67.31
36798;BME280;22748;8.426;99.512;2023-08-08T11:23:22;100699.25;;;30.06;67.11
36798;BME280;22748;8.426;99.512;2023-08-08T11:25:57;100691.38;;;30.04;67.29
36798;BME280;22748;8.426;99.512;2023-08-08T11:28:28;100690.75;;;30.02;67.56
36798;BME280;22748;8.426;99.512;2023-08-08T11:31:00;100699.91;;;30.01;67.09
36798;BME280;22748;8.426;99.512;2023-08-08T11:33:32;100698.03;;;30.02;67.26
36798;BME280;22748;8.426;99.512;2023-08-08T11:36:03;100699.28;;;29.99;67.21
36798;BME280;22748;8.426;99.512;2023-08-08T11:38:36;100703.00;;;29.98;67.55
36798;BME280;22748;8.426;99.512;2023-08-08T11:41:10;100701.78;;;29.94;67.56
36798;BME280;22748;8.426;99.512;2023-08-08T11:43:41;100705.53;;;29.93;67.67
36798;BME280;22748;8.426;99.512;2023-08-08T11:46:14;100702.63;;;29.94;67.47
36798;BME280;22748;8.426;99.512;2023-08-08T11:48:47;100704.47;;;29.94;68.04
36798;BME280;22748;8.426;99.512;2023-08-08T11:51:19;100706.13;;;29.95;68.07
36798;BME280;22748;8.426;99.512;2023-08-08T11:53:51;100705.31;;;29.94;67.80
36798;BME280;22748;8.426;99.512;2023-08-08T11:56:24;100710.91;;;29.93;67.30
36798;BME280;22748;8.426;99.512;2023-08-08T11:58:55;100703.84;;;29.92;67.74
36798;BME280;22748;8.426;99.512;2023-08-08T12:01:27;100706.34;;;29.93;67.86
36798;BME280;22748;8.426;99.512;2023-08-08T12:04:03;100714.22;;;29.95;67.77
36798;BME280;22748;8.426;99.512;2023-08-08T12:06:37;100710.91;;;29.93;67.76
36798;BME280;22748;8.426;99.512;2023-08-08T12:09:12;100716.28;;;29.93;67.54
36798;BME280;22748;8.426;99.512;2023-08-08T12:11:46;100716.91;;;29.95;67.64
36798;BME280;22748;8.426;99.512;2023-08-08T12:14:20;100714.22;;;29.95;67.55
36798;BME280;22748;8.426;99.512;2023-08-08T12:16:52;100712.34;;;29.96;67.75
36798;BME280;22748;8.426;99.512;2023-08-08T12:19:24;100721.25;;;29.96;67.90
36798;BME280;22748;8.426;99.512;2023-08-08T12:21:57;100731.00;;;29.97;68.02
36798;BME280;22748;8.426;99.512;2023-08-08T12:24:27;100731.41;;;29.94;68.01
36798;BME280;22748;8.426;99.512;2023-08-08T12:27:02;100730.81;;;29.85;67.96
36798;BME280;22748;8.426;99.512;2023-08-08T12:29:34;100726.88;;;29.88;67.82
36798;BME280;22748;8.426;99.512;2023-08-08T12:32:05;100726.88;;;29.88;67.60
36798;BME280;22748;8.426;99.512;2023-08-08T12:34:36;100730.44;;;29.82;68.17
36798;BME280;22748;8.426;99.512;2023-08-08T12:37:06;100727.75;;;29.82;67.91
36798;BME280;22748;8.426;99.512;2023-08-08T12:39:37;100739.13;;;29.84;67.87
36798;BME280;22748;8.426;99.512;2023-08-08T12:42:09;100741.59;;;29.79;67.94
36798;BME280;22748;8.426;99.512;2023-08-08T12:44:40;100747.44;;;29.76;67.85
36798;BME280;22748;8.426;99.512;2023-08-08T12:47:11;100749.50;;;29.73;68.01
36798;BME280;22748;8.426;99.512;2023-08-08T12:49:42;100767.28;;;29.74;68.10
36798;BME280;22748;8.426;99.512;2023-08-08T12:52:13;100769.97;;;29.74;68.28
36798;BME280;22748;8.426;99.512;2023-08-08T12:54:44;100783.03;;;29.78;68.08
36798;BME280;22748;8.426;99.512;2023-08-08T12:57:16;100786.34;;;29.80;68.16
36798;BME280;22748;8.426;99.512;2023-08-08T12:59:47;100789.44;;;29.77;67.88
36798;BME280;22748;8.426;99.512;2023-08-08T13:02:20;100800.81;;;29.79;67.85
36798;BME280;22748;8.426;99.512;2023-08-08T13:04:53;100804.13;;;29.81;67.94
36798;BME280;22748;8.426;99.512;2023-08-08T13:07:23;100810.13;;;29.83;67.82
36798;BME280;22748;8.426;99.512;2023-08-08T13:09:53;100819.88;;;29.84;67.95
36798;BME280;22748;8.426;99.512;2023-08-08T13:12:30;100824.41;;;29.83;68.06
36798;BME280;22748;8.426;99.512;2023-08-08T13:15:00;100832.28;;;29.85;67.92
36798;BME280;22748;8.426;99.512;2023-08-08T13:17:35;100839.34;;;29.86;67.44
36798;BME280;22748;8.426;99.512;2023-08-08T13:20:07;100844.72;;;29.86;67.79
36798;BME280;22748;8.426;99.512;2023-08-08T13:22:38;100839.34;;;29.86;67.44
36798;BME280;22748;8.426;99.512;2023-08-08T13:25:10;100844.72;;;29.86;67.93
36798;BME280;22748;8.426;99.512;2023-08-08T13:27:43;100844.72;;;29.86;67.50
36798;BME280;22748;8.426;99.512;2023-08-08T13:30:18;100849.50;;;29.84;67.54